createdAt,value
2018-10-09T00:00:05.905Z,5.10
2018-10-09T00:02:36.500Z,4.67
2018-10-09T00:05:07.644Z,4.53
2018-10-09T00:07:38.373Z,4.57
2018-10-09T00:10:09.162Z,4.40
2018-10-09T00:12:39.794Z,5.40
2018-10-09T00:15:10.436Z,4.67
2018-10-09T00:17:41.079Z,4.17
2018-10-09T00:20:15.150Z,4.63
2018-10-09T00:22:45.869Z,6.07
2018-10-09T00:25:16.494Z,5.27
2018-10-09T00:27:47.156Z,5.60
2018-10-09T00:30:17.895Z,6.80
2018-10-09T00:32:48.474Z,6.60
2018-10-09T00:35:19.151Z,6.37
2018-10-09T00:37:49.861Z,6.30
2018-10-09T00:40:20.536Z,6.83
2018-10-09T00:42:51.307Z,6.40
2018-10-09T00:45:21.970Z,6.20
2018-10-09T00:47:52.655Z,5.77
2018-10-09T00:50:23.327Z,5.00
2018-10-09T00:52:53.966Z,5.17
2018-10-09T00:55:24.728Z,4.80
2018-10-09T00:57:55.419Z,5.53
2018-10-09T01:00:26.125Z,6.30
2018-10-09T01:02:56.768Z,5.40
2018-10-09T01:05:27.446Z,5.67
2018-10-09T01:07:58.082Z,5.83
2018-10-09T01:10:28.761Z,6.20
2018-10-09T01:12:59.374Z,5.43
2018-10-09T01:15:30.209Z,5.90
2018-10-09T01:18:31.817Z,5.67
2018-10-09T01:21:02.520Z,5.70
2018-10-09T01:23:33.183Z,6.00
2018-10-09T01:26:03.933Z,5.73
2018-10-09T01:28:34.580Z,6.13
2018-10-09T01:31:05.265Z,5.73
2018-10-09T01:33:35.943Z,5.80
2018-10-09T01:36:06.824Z,6.00
2018-10-09T01:38:37.566Z,5.67
2018-10-09T01:41:08.204Z,6.30
2018-10-09T01:43:38.872Z,5.93
2018-10-09T01:46:09.558Z,6.23
2018-10-09T01:48:40.255Z,5.67
2018-10-09T01:51:11.027Z,6.10
2018-10-09T01:53:41.745Z,5.53
2018-10-09T01:56:12.388Z,6.13
2018-10-09T01:58:43.012Z,6.43
2018-10-09T02:01:13.634Z,6.10
2018-10-09T02:03:44.247Z,5.70
2018-10-09T02:06:14.944Z,5.70
2018-10-09T02:08:45.576Z,6.20
2018-10-09T02:11:16.236Z,6.57
2018-10-09T02:13:46.878Z,6.83
2018-10-09T02:16:17.793Z,6.57
2018-10-09T02:18:48.419Z,7.27
2018-10-09T02:21:19.066Z,7.43
2018-10-09T02:23:49.672Z,6.73
2018-10-09T02:26:20.304Z,6.63
2018-10-09T02:28:51.011Z,7.60
2018-10-09T02:31:21.776Z,8.83
2018-10-09T02:33:52.415Z,7.90
2018-10-09T02:36:23.010Z,8.27
2018-10-09T02:38:53.675Z,8.27
2018-10-09T02:41:24.361Z,8.10
2018-10-09T02:43:55.045Z,7.93
2018-10-09T02:46:25.745Z,8.07
2018-10-09T02:48:56.487Z,7.40
2018-10-09T02:51:27.226Z,7.63
2018-10-09T02:53:58.046Z,8.03
2018-10-09T02:56:28.689Z,8.40
2018-10-09T02:58:59.366Z,8.63
2018-10-09T03:01:30.151Z,9.60
2018-10-09T03:04:00.821Z,8.63
2018-10-09T03:06:31.475Z,8.93
2018-10-09T03:09:02.178Z,8.63
2018-10-09T03:11:32.891Z,8.70
2018-10-09T03:14:03.660Z,8.60
2018-10-09T03:16:34.305Z,8.10
2018-10-09T03:19:04.992Z,7.60
2018-10-09T03:21:35.663Z,8.47
2018-10-09T03:24:06.423Z,7.03
2018-10-09T03:26:37.047Z,7.70
2018-10-09T03:29:08.080Z,7.93
2018-10-09T03:31:38.755Z,8.10
2018-10-09T03:34:09.423Z,8.50
2018-10-09T03:36:40.093Z,8.77
2018-10-09T03:39:11.052Z,8.10
2018-10-09T03:41:41.610Z,9.33
2018-10-09T03:44:12.287Z,8.10
2018-10-09T03:46:42.952Z,7.87
2018-10-09T03:49:13.603Z,8.17
2018-10-09T03:51:44.296Z,8.07
2018-10-09T03:54:14.988Z,8.60
2018-10-09T03:56:45.759Z,7.53
2018-10-09T03:59:16.382Z,8.63
2018-10-09T04:01:47.026Z,8.07
2018-10-09T04:04:17.688Z,8.10
2018-10-09T04:06:48.303Z,8.07
2018-10-09T04:09:18.993Z,9.10
2018-10-09T04:11:49.569Z,9.27
2018-10-09T04:14:20.272Z,8.67
2018-10-09T04:16:50.913Z,9.27
2018-10-09T04:19:21.624Z,9.37
2018-10-09T04:21:52.247Z,8.83
2018-10-09T04:24:22.835Z,9.97
2018-10-09T04:26:53.511Z,10.23
2018-10-09T04:29:24.271Z,8.87
2018-10-09T04:31:54.877Z,10.23
2018-10-09T04:34:25.463Z,8.50
2018-10-09T04:36:56.073Z,8.80
2018-10-09T04:39:26.686Z,9.30
2018-10-09T04:41:57.340Z,9.20
2018-10-09T04:44:27.999Z,9.30
2018-10-09T04:46:58.790Z,10.47
2018-10-09T04:49:29.485Z,9.00
2018-10-09T04:52:00.111Z,9.97
2018-10-09T04:54:30.882Z,10.70
2018-10-09T04:57:01.502Z,10.37
2018-10-09T04:59:32.176Z,10.17
2018-10-09T05:02:02.853Z,9.33
2018-10-09T05:04:33.505Z,9.53
2018-10-09T05:07:04.203Z,9.53
2018-10-09T05:09:34.901Z,11.70
2018-10-09T05:12:05.593Z,10.67
2018-10-09T05:14:36.226Z,10.63
2018-10-09T05:17:07.260Z,11.10
2018-10-09T05:19:37.894Z,10.63
2018-10-09T05:22:08.775Z,10.50
2018-10-09T05:24:39.435Z,10.53
2018-10-09T05:27:10.103Z,11.30
2018-10-09T05:29:40.846Z,11.50
2018-10-09T05:32:11.516Z,11.70
2018-10-09T05:34:42.115Z,11.40
2018-10-09T05:37:12.790Z,11.70
2018-10-09T05:39:43.466Z,11.50
2018-10-09T05:42:14.139Z,11.03
2018-10-09T05:44:44.854Z,11.33
2018-10-09T05:47:15.520Z,11.47
2018-10-09T05:49:46.147Z,11.37
2018-10-09T05:52:16.790Z,12.40
2018-10-09T05:54:47.618Z,13.40
2018-10-09T05:57:18.264Z,11.80
2018-10-09T05:59:48.956Z,12.43
2018-10-09T06:02:19.638Z,11.17
2018-10-09T06:04:50.331Z,11.07
2018-10-09T06:07:21.065Z,11.97
2018-10-09T06:09:51.753Z,13.70
2018-10-09T06:12:22.428Z,12.27
2018-10-09T06:14:53.085Z,12.07
2018-10-09T06:17:23.771Z,12.40
2018-10-09T06:19:54.422Z,11.83
2018-10-09T06:22:25.084Z,13.10
2018-10-09T06:24:55.696Z,13.13
2018-10-09T06:27:26.375Z,13.27
2018-10-09T06:29:57.038Z,11.57
2018-10-09T06:32:27.673Z,13.03
2018-10-09T06:34:58.395Z,14.67
2018-10-09T06:37:29.007Z,14.53
2018-10-09T06:39:59.695Z,14.40
2018-10-09T06:42:30.389Z,13.80
2018-10-09T06:45:01.047Z,14.97
2018-10-09T06:47:32.347Z,14.30
2018-10-09T06:50:03.021Z,14.17
2018-10-09T06:52:33.666Z,14.17
2018-10-09T06:55:04.362Z,13.80
2018-10-09T06:57:35.061Z,14.83
2018-10-09T07:00:05.995Z,13.53
2018-10-09T07:02:36.670Z,12.77
2018-10-09T07:05:07.596Z,12.50
2018-10-09T07:07:38.305Z,12.57
2018-10-09T07:10:09.085Z,12.63
2018-10-09T07:12:39.740Z,12.13
2018-10-09T07:15:10.498Z,11.27
2018-10-09T07:17:41.184Z,11.30
2018-10-09T07:20:11.848Z,12.00
2018-10-09T07:22:42.532Z,10.80
2018-10-09T07:25:13.194Z,11.50
2018-10-09T07:27:43.848Z,10.93
2018-10-09T07:30:14.488Z,10.53
2018-10-09T07:32:45.160Z,10.40
2018-10-09T07:35:15.863Z,10.20
2018-10-09T07:37:46.523Z,10.80
2018-10-09T07:40:17.274Z,11.03
2018-10-09T07:42:47.908Z,10.70
2018-10-09T07:45:18.596Z,11.37
2018-10-09T07:47:49.272Z,11.77
2018-10-09T07:50:19.910Z,11.37
2018-10-09T07:52:50.667Z,11.97
2018-10-09T07:55:21.339Z,11.43
2018-10-09T07:57:52.040Z,11.67
2018-10-09T08:00:22.965Z,10.80
2018-10-09T08:02:53.684Z,10.83
2018-10-09T08:05:27.400Z,10.77
2018-10-09T08:07:58.058Z,10.47
2018-10-09T08:10:28.899Z,10.67
2018-10-09T08:12:59.489Z,10.80
2018-10-09T08:15:30.181Z,9.87
2018-10-09T08:18:00.864Z,10.00
2018-10-09T08:20:31.539Z,9.57
2018-10-09T08:23:02.341Z,9.57
2018-10-09T08:25:32.962Z,9.30
2018-10-09T08:28:03.662Z,9.50
2018-10-09T08:30:34.362Z,9.70
2018-10-09T08:33:05.088Z,10.20
2018-10-09T08:35:35.708Z,10.97
2018-10-09T08:38:06.457Z,10.57
2018-10-09T08:40:37.162Z,10.70
2018-10-09T08:43:07.865Z,10.50
2018-10-09T08:45:38.511Z,10.63
2018-10-09T08:48:09.217Z,10.77
2018-10-09T08:50:39.851Z,10.83
2018-10-09T08:53:10.539Z,10.47
2018-10-09T08:55:41.255Z,10.37
2018-10-09T08:58:11.939Z,9.93
2018-10-09T09:00:42.740Z,10.23
2018-10-09T09:03:13.397Z,9.60
2018-10-09T09:05:44.194Z,10.70
2018-10-09T09:08:14.832Z,10.40
2018-10-09T09:10:45.565Z,9.70
2018-10-09T09:13:16.281Z,9.80
2018-10-09T09:15:46.967Z,9.10
2018-10-09T09:18:17.634Z,9.10
2018-10-09T09:20:48.320Z,9.67
2018-10-09T09:23:18.968Z,9.13
2018-10-09T09:25:49.634Z,9.10
2018-10-09T09:28:20.286Z,9.47
2018-10-09T09:30:50.904Z,10.00
2018-10-09T09:33:21.659Z,9.47
2018-10-09T09:35:52.326Z,10.27
2018-10-09T09:38:22.992Z,10.80
2018-10-09T09:40:53.702Z,10.13
2018-10-09T09:43:24.409Z,10.67
2018-10-09T09:45:55.236Z,11.40
2018-10-09T09:48:25.813Z,10.90
2018-10-09T09:50:56.514Z,10.23
2018-10-09T09:53:27.210Z,10.80
2018-10-09T09:55:57.927Z,10.63
2018-10-09T09:58:28.661Z,10.60
2018-10-09T10:01:13.499Z,10.30
2018-10-09T10:03:44.258Z,11.10
2018-10-09T10:06:14.878Z,11.20
2018-10-09T10:08:45.543Z,11.60
2018-10-09T10:11:16.150Z,11.57
2018-10-09T10:13:46.799Z,11.53
2018-10-09T10:16:17.500Z,12.20
2018-10-09T10:18:48.238Z,11.77
2018-10-09T10:21:19.267Z,11.83
2018-10-09T10:23:49.924Z,11.43
2018-10-09T10:26:20.640Z,11.50
2018-10-09T10:28:51.365Z,12.43
2018-10-09T10:31:22.026Z,12.63
2018-10-09T10:33:52.802Z,12.10
2018-10-09T10:36:23.522Z,12.00
2018-10-09T10:38:54.186Z,11.13
2018-10-09T10:41:24.893Z,11.50
2018-10-09T10:43:55.566Z,11.67
2018-10-09T10:46:30.237Z,11.27
2018-10-09T10:49:06.743Z,12.50
2018-10-09T10:51:37.940Z,10.83
2018-10-09T10:54:08.895Z,11.13
2018-10-09T10:56:39.675Z,10.97
2018-10-09T10:59:10.416Z,11.17
2018-10-09T11:01:41.420Z,14.47
2018-10-09T11:04:12.096Z,13.00
2018-10-09T11:06:42.840Z,11.33
2018-10-09T11:09:13.493Z,11.77
2018-10-09T11:11:44.196Z,10.60
2018-10-09T11:14:14.911Z,11.03
2018-10-09T11:16:45.599Z,11.30
2018-10-09T11:19:16.231Z,10.40
2018-10-09T11:21:46.917Z,10.60
2018-10-09T11:24:17.577Z,10.47
2018-10-09T11:26:48.268Z,11.20
2018-10-09T11:29:19.995Z,10.97
2018-10-09T11:31:50.653Z,11.30
2018-10-09T11:34:21.292Z,11.33
2018-10-09T11:36:51.948Z,10.80
2018-10-09T11:39:22.656Z,11.40
2018-10-09T11:41:53.333Z,12.40
2018-10-09T11:44:23.981Z,10.07
2018-10-09T11:46:54.667Z,11.10
2018-10-09T11:49:25.396Z,12.37
2018-10-09T11:51:56.076Z,11.77
2018-10-09T11:54:26.733Z,11.10
2018-10-09T11:56:57.423Z,10.63
2018-10-09T11:59:28.101Z,11.80
2018-10-09T12:01:58.798Z,11.03
2018-10-09T12:04:29.538Z,10.30
2018-10-09T12:07:00.218Z,10.73
2018-10-09T12:09:30.910Z,9.87
2018-10-09T12:12:01.560Z,10.70
2018-10-09T12:14:32.233Z,10.13
2018-10-09T12:17:02.882Z,10.90
2018-10-09T12:19:33.513Z,10.80
2018-10-09T12:22:04.300Z,9.30
2018-10-09T12:24:34.893Z,9.07
2018-10-09T12:27:05.607Z,9.03
2018-10-09T12:29:36.248Z,7.53
2018-10-09T12:32:07.108Z,7.57
2018-10-09T12:34:37.799Z,8.53
2018-10-09T12:37:08.518Z,8.40
2018-10-09T12:39:39.183Z,7.83
2018-10-09T12:42:09.886Z,8.00
2018-10-09T12:44:40.560Z,7.20
2018-10-09T12:47:11.223Z,7.77
2018-10-09T12:49:41.893Z,8.03
2018-10-09T12:52:12.533Z,6.90
2018-10-09T12:54:43.227Z,7.10
2018-10-09T12:57:13.926Z,8.20
2018-10-09T12:59:44.589Z,7.67
2018-10-09T13:02:15.266Z,7.93
2018-10-09T13:04:45.904Z,6.67
2018-10-09T13:07:16.557Z,7.00
2018-10-09T13:09:47.196Z,5.80
2018-10-09T13:12:17.859Z,6.47
2018-10-09T13:14:48.521Z,5.50
2018-10-09T13:17:19.215Z,5.37
2018-10-09T13:19:49.863Z,5.43
2018-10-09T13:22:20.904Z,5.30
2018-10-09T13:25:06.144Z,5.80
2018-10-09T13:27:36.823Z,5.20
2018-10-09T13:30:08.360Z,4.53
2018-10-09T13:32:39.013Z,4.30
2018-10-09T13:35:09.803Z,4.53
2018-10-09T13:37:40.442Z,4.90
2018-10-09T13:40:11.118Z,5.60
2018-10-09T13:42:41.791Z,4.30
2018-10-09T13:45:12.426Z,5.00
2018-10-09T13:47:43.203Z,4.23
2018-10-09T13:50:13.865Z,4.80
2018-10-09T13:52:44.528Z,4.30
2018-10-09T13:55:15.245Z,4.43
2018-10-09T13:57:45.859Z,4.80
2018-10-09T14:00:16.529Z,4.17
2018-10-09T14:02:47.229Z,4.13
2018-10-09T14:05:17.962Z,4.53
2018-10-09T14:07:49.541Z,3.80
2018-10-09T14:10:20.192Z,4.30
2018-10-09T14:12:50.845Z,4.10
2018-10-09T14:15:21.609Z,4.10
2018-10-09T14:17:52.248Z,3.80
2018-10-09T14:20:22.865Z,3.80
2018-10-09T14:22:53.594Z,4.20
2018-10-09T14:25:24.148Z,3.93
2018-10-09T14:27:54.806Z,3.73
2018-10-09T14:30:25.489Z,3.50
2018-10-09T14:32:56.116Z,3.90
2018-10-09T14:35:26.847Z,3.60
2018-10-09T14:37:57.510Z,3.67
2018-10-09T14:40:28.214Z,3.70
2018-10-09T14:42:58.847Z,3.70
2018-10-09T14:45:29.604Z,3.63
2018-10-09T14:48:00.263Z,3.83
2018-10-09T14:50:30.905Z,3.80
2018-10-09T14:53:01.566Z,3.80
2018-10-09T14:55:38.820Z,3.50
2018-10-09T14:58:09.551Z,3.50
2018-10-09T15:00:40.249Z,3.40
2018-10-09T15:03:10.985Z,3.63
2018-10-09T15:05:41.704Z,3.23
2018-10-09T15:08:12.462Z,3.27
2018-10-09T15:10:43.162Z,3.33
2018-10-09T15:13:13.822Z,3.17
2018-10-09T15:15:44.507Z,3.50
2018-10-09T15:18:15.119Z,3.50
2018-10-09T15:20:45.832Z,3.50
2018-10-09T15:23:16.519Z,3.33
2018-10-09T15:25:47.172Z,3.37
2018-10-09T15:28:17.864Z,3.50
2018-10-09T15:30:48.466Z,3.00
2018-10-09T15:33:19.160Z,3.30
2018-10-09T15:35:49.818Z,3.10
2018-10-09T15:38:20.482Z,3.00
2018-10-09T15:40:51.096Z,2.80
2018-10-09T15:43:21.835Z,2.80
2018-10-09T15:45:52.475Z,3.07
2018-10-09T15:48:23.136Z,2.80
2018-10-09T15:50:53.879Z,3.33
2018-10-09T15:53:24.567Z,3.00
2018-10-09T15:55:55.209Z,3.03
2018-10-09T15:58:25.994Z,3.40
2018-10-09T16:00:56.558Z,3.13
2018-10-09T16:03:27.266Z,3.23
2018-10-09T16:05:58.021Z,3.40
2018-10-09T16:08:28.687Z,3.60
2018-10-09T16:10:59.346Z,3.13
2018-10-09T16:13:29.972Z,3.53
2018-10-09T16:16:00.659Z,3.33
2018-10-09T16:18:31.327Z,4.00
2018-10-09T16:21:01.982Z,3.60
2018-10-09T16:23:33.114Z,3.80
2018-10-09T16:26:03.815Z,3.40
2018-10-09T16:28:34.493Z,3.50
2018-10-09T16:31:05.211Z,3.60
2018-10-09T16:33:35.940Z,3.73
2018-10-09T16:36:06.657Z,4.13
2018-10-09T16:38:37.377Z,3.40
2018-10-09T16:41:08.636Z,3.30
2018-10-09T16:43:39.252Z,3.33
2018-10-09T16:46:09.900Z,3.10
2018-10-09T16:48:40.631Z,3.87
2018-10-09T16:51:11.384Z,6.47
2018-10-09T16:53:42.025Z,3.50
2018-10-09T16:56:12.644Z,3.63
2018-10-09T16:58:43.284Z,3.30
2018-10-09T17:01:13.940Z,4.00
2018-10-09T17:03:44.562Z,3.40
2018-10-09T17:06:15.297Z,3.60
2018-10-09T17:08:45.927Z,3.40
2018-10-09T17:11:16.686Z,3.73
2018-10-09T17:13:47.304Z,3.30
2018-10-09T17:16:17.958Z,4.10
2018-10-09T17:18:48.688Z,4.00
2018-10-09T17:21:19.336Z,4.20
2018-10-09T17:23:50.020Z,3.90
2018-10-09T17:26:20.636Z,3.90
2018-10-09T17:28:51.259Z,3.40
2018-10-09T17:31:21.915Z,3.63
2018-10-09T17:33:52.561Z,3.97
2018-10-09T17:36:23.257Z,4.20
2018-10-09T17:38:53.907Z,3.60
2018-10-09T17:41:24.567Z,3.83
2018-10-09T17:43:55.199Z,4.60
2018-10-09T17:46:25.970Z,4.00
2018-10-09T17:48:56.476Z,4.20
2018-10-09T17:51:27.116Z,4.20
2018-10-09T17:53:57.833Z,4.23
2018-10-09T17:56:28.479Z,4.20
2018-10-09T17:58:59.070Z,5.80
2018-10-09T18:01:29.817Z,4.87
2018-10-09T18:04:00.451Z,4.83
2018-10-09T18:06:31.179Z,4.90
2018-10-09T18:09:01.905Z,5.13
2018-10-09T18:11:32.515Z,4.90
2018-10-09T18:14:03.138Z,4.77
2018-10-09T18:16:33.769Z,5.90
2018-10-09T18:19:04.587Z,5.00
2018-10-09T18:21:35.845Z,5.50
2018-10-09T18:24:06.914Z,6.77
2018-10-09T18:26:37.527Z,6.50
2018-10-09T18:29:08.219Z,4.97
2018-10-09T18:31:38.835Z,5.27
2018-10-09T18:34:09.544Z,6.27
2018-10-09T18:36:40.322Z,6.03
2018-10-09T18:39:14.779Z,5.40
2018-10-09T18:41:46.412Z,7.87
2018-10-09T18:44:17.068Z,6.30
2018-10-09T18:46:47.757Z,6.73
2018-10-09T18:49:18.492Z,7.90
2018-10-09T18:51:49.150Z,6.87
2018-10-09T18:54:19.826Z,7.93
2018-10-09T18:56:50.425Z,7.00
2018-10-09T18:59:21.092Z,7.50
2018-10-09T19:01:51.876Z,7.03
2018-10-09T19:04:22.560Z,9.70
2018-10-09T19:06:53.233Z,9.60
2018-10-09T19:09:23.863Z,8.83
2018-10-09T19:11:54.558Z,9.27
2018-10-09T19:14:25.232Z,9.23
2018-10-09T19:16:55.964Z,8.60
2018-10-09T19:19:26.896Z,8.70
2018-10-09T19:21:57.588Z,7.70
2018-10-09T19:24:28.268Z,8.60
2018-10-09T19:26:59.298Z,7.73
2018-10-09T19:30:01.364Z,8.43
2018-10-09T19:32:32.087Z,7.70
2018-10-09T19:35:03.454Z,8.50
2018-10-09T19:37:34.134Z,7.27
2018-10-09T19:40:05.909Z,7.87
2018-10-09T19:42:36.570Z,8.37
2018-10-09T19:45:07.367Z,8.03
2018-10-09T19:47:38.585Z,7.33
2018-10-09T19:50:09.799Z,7.57
2018-10-09T19:52:40.445Z,7.60
2018-10-09T19:55:11.147Z,7.87
2018-10-09T19:57:41.758Z,7.60
2018-10-09T20:00:12.466Z,7.50
2018-10-09T20:02:43.093Z,7.90
2018-10-09T20:05:13.772Z,8.27
2018-10-09T20:07:44.534Z,7.47
2018-10-09T20:10:15.180Z,7.70
2018-10-09T20:12:45.847Z,7.07
2018-10-09T20:15:16.505Z,7.67
2018-10-09T20:17:47.408Z,7.60
2018-10-09T20:20:18.094Z,7.70
2018-10-09T20:22:48.943Z,7.47
2018-10-09T20:25:19.603Z,7.50
2018-10-09T20:27:50.323Z,7.67
2018-10-09T20:30:20.995Z,7.70
2018-10-09T20:32:51.714Z,7.47
2018-10-09T20:35:22.339Z,7.87
2018-10-09T20:37:53.036Z,8.27
2018-10-09T20:40:23.740Z,8.00
2018-10-09T20:42:54.435Z,8.83
2018-10-09T20:45:25.109Z,8.63
2018-10-09T20:47:55.802Z,8.10
2018-10-09T20:50:26.405Z,8.37
2018-10-09T20:52:57.076Z,8.50
2018-10-09T20:55:27.762Z,8.30
2018-10-09T20:57:58.409Z,10.20
2018-10-09T21:00:29.068Z,9.43
2018-10-09T21:02:59.767Z,10.13
2018-10-09T21:05:30.442Z,10.10
2018-10-09T21:08:01.072Z,9.97
2018-10-09T21:10:31.753Z,9.97
2018-10-09T21:13:02.398Z,10.00
2018-10-09T21:15:33.095Z,10.50
2018-10-09T21:18:03.850Z,10.70
2018-10-09T21:20:34.466Z,10.00
2018-10-09T21:23:05.155Z,10.17
2018-10-09T21:25:35.825Z,10.10
2018-10-09T21:28:06.693Z,10.90
2018-10-09T21:30:37.332Z,10.20
2018-10-09T21:33:08.222Z,10.20
2018-10-09T21:35:38.880Z,10.97
2018-10-09T21:38:09.659Z,10.00
2018-10-09T21:40:40.411Z,11.27
2018-10-09T21:43:11.132Z,10.30
2018-10-09T21:45:41.777Z,10.80
2018-10-09T21:48:43.396Z,10.10
2018-10-09T21:51:14.787Z,10.40
2018-10-09T21:53:45.494Z,10.80
2018-10-09T21:56:16.221Z,10.20
2018-10-09T21:58:46.917Z,10.10
2018-10-09T22:01:17.565Z,9.73
2018-10-09T22:03:48.231Z,10.97
2018-10-09T22:06:18.890Z,11.10
2018-10-09T22:08:53.815Z,10.03
2018-10-09T22:11:24.448Z,10.40
2018-10-09T22:13:55.114Z,12.10
2018-10-09T22:16:25.755Z,11.43
2018-10-09T22:18:56.434Z,11.27
2018-10-09T22:21:27.092Z,10.53
2018-10-09T22:23:57.799Z,11.00
2018-10-09T22:26:28.467Z,11.00
2018-10-09T22:28:59.217Z,10.63
2018-10-09T22:31:29.912Z,10.93
2018-10-09T22:34:00.610Z,11.30
2018-10-09T22:36:31.242Z,12.83
2018-10-09T22:39:01.947Z,13.23
2018-10-09T22:41:32.554Z,12.13
2018-10-09T22:44:03.312Z,12.90
2018-10-09T22:46:34.048Z,13.37
2018-10-09T22:49:04.722Z,12.97
2018-10-09T22:51:35.448Z,12.93
2018-10-09T22:54:06.116Z,12.87
2018-10-09T22:56:36.786Z,13.53
2018-10-09T22:59:07.505Z,13.73
2018-10-09T23:01:38.208Z,13.70
2018-10-09T23:04:08.992Z,14.57
2018-10-09T23:06:39.637Z,13.73
2018-10-09T23:09:12.084Z,14.57
2018-10-09T23:11:42.736Z,14.97
2018-10-09T23:14:14.842Z,14.10
2018-10-09T23:16:45.552Z,14.73
2018-10-09T23:19:16.217Z,14.60
2018-10-09T23:21:46.925Z,14.37
2018-10-09T23:24:17.575Z,13.57
2018-10-09T23:26:48.276Z,14.93
2018-10-09T23:29:18.934Z,13.97
2018-10-09T23:31:49.719Z,15.53
2018-10-09T23:34:20.435Z,15.07
2018-10-09T23:36:51.203Z,15.47
2018-10-09T23:39:21.847Z,15.30
2018-10-09T23:41:52.654Z,15.73
2018-10-09T23:44:23.325Z,15.80
2018-10-09T23:46:54.023Z,17.47
2018-10-09T23:49:24.700Z,17.03
2018-10-09T23:51:55.392Z,15.53
2018-10-09T23:54:26.030Z,16.63
2018-10-09T23:56:56.706Z,14.50
2018-10-09T23:59:27.420Z,15.83
